createdAt,value
2023-09-19T00:01:10.085Z,80.37
2023-09-19T00:03:43.079Z,80.43
2023-09-19T00:06:11.444Z,80.24
2023-09-19T00:08:39.354Z,80.26
2023-09-19T00:11:07.127Z,80.26
2023-09-19T00:13:37.496Z,80.16
2023-09-19T00:16:13.167Z,80.26
2023-09-19T00:18:41.228Z,80.32
2023-09-19T00:21:09.115Z,80.29
2023-09-19T00:23:36.895Z,80.11
2023-09-19T00:26:05.266Z,80.09
2023-09-19T00:28:33.363Z,80.43
2023-09-19T00:31:03.067Z,80.48
2023-09-19T00:33:32.567Z,80.54
2023-09-19T00:36:00.712Z,80.59
2023-09-19T00:38:28.566Z,80.65
2023-09-19T00:41:00.675Z,80.76
2023-09-19T00:43:29.338Z,80.74
2023-09-19T00:45:58.137Z,80.84
2023-09-19T00:48:29.856Z,80.82
2023-09-19T00:51:03.178Z,80.84
2023-09-19T00:53:32.206Z,80.87
2023-09-19T00:56:00.214Z,80.80
2023-09-19T00:58:33.653Z,80.85
2023-09-19T01:01:04.460Z,80.86
2023-09-19T01:03:32.686Z,80.90
2023-09-19T01:06:01.876Z,80.83
2023-09-19T01:08:30.946Z,80.86
2023-09-19T01:11:14.273Z,80.84
2023-09-19T01:14:00.883Z,80.96
2023-09-19T01:16:54.334Z,80.88
2023-09-19T01:19:45.033Z,80.88
2023-09-19T01:22:29.313Z,80.93
2023-09-19T01:25:42.121Z,80.91
2023-09-19T01:28:29.909Z,80.92
2023-09-19T01:31:02.505Z,80.93
2023-09-19T01:34:01.087Z,80.95
2023-09-19T01:36:39.537Z,80.92
2023-09-19T01:39:14.486Z,80.90
2023-09-19T01:41:57.051Z,80.84
2023-09-19T01:45:03.908Z,80.80
2023-09-19T01:47:57.532Z,80.79
2023-09-19T01:50:37.820Z,80.92
2023-09-19T01:53:15.062Z,80.95
2023-09-19T01:55:50.495Z,80.86
2023-09-19T01:58:33.986Z,80.88
2023-09-19T02:01:04.723Z,80.87
2023-09-19T02:03:35.981Z,80.92
2023-09-19T02:06:06.447Z,80.99
2023-09-19T02:08:34.912Z,80.98
2023-09-19T02:11:02.823Z,81.02
2023-09-19T02:13:32.811Z,81.10
2023-09-19T02:16:01.428Z,81.11
2023-09-19T02:18:29.592Z,81.02
2023-09-19T02:20:59.741Z,81.00
2023-09-19T02:23:27.914Z,81.03
2023-09-19T02:25:57.061Z,81.00
2023-09-19T02:28:25.714Z,80.99
2023-09-19T02:30:53.568Z,80.97
2023-09-19T02:33:21.391Z,80.87
2023-09-19T02:35:49.605Z,80.79
2023-09-19T02:38:22.106Z,80.82
2023-09-19T02:40:50.690Z,80.81
2023-09-19T02:43:18.501Z,80.78
2023-09-19T02:45:56.272Z,80.80
2023-09-19T02:48:24.351Z,80.74
2023-09-19T02:50:52.645Z,80.66
2023-09-19T02:53:20.723Z,80.65
2023-09-19T02:55:49.602Z,80.62
2023-09-19T02:58:19.952Z,80.61
2023-09-19T03:00:49.133Z,80.58
2023-09-19T03:03:17.750Z,80.63
2023-09-19T03:05:48.068Z,80.53
2023-09-19T03:08:18.101Z,80.58
2023-09-19T03:10:49.035Z,80.58
2023-09-19T03:13:17.902Z,80.53
2023-09-19T03:15:48.399Z,80.59
2023-09-19T03:18:17.408Z,80.50
2023-09-19T03:20:53.872Z,80.44
2023-09-19T03:23:23.862Z,80.39
2023-09-19T03:25:53.407Z,80.30
2023-09-19T03:28:22.920Z,80.19
2023-09-19T03:31:06.047Z,80.20
2023-09-19T03:33:35.588Z,80.15
2023-09-19T03:36:07.062Z,80.17
2023-09-19T03:38:35.945Z,80.05
2023-09-19T03:41:04.299Z,80.03
2023-09-19T03:43:34.111Z,80.02
2023-09-19T03:46:06.340Z,80.05
2023-09-19T03:48:34.916Z,79.98
2023-09-19T03:51:03.594Z,80.00
2023-09-19T03:53:31.658Z,80.04
2023-09-19T03:56:01.060Z,80.05
2023-09-19T03:58:30.314Z,80.01
2023-09-19T04:00:59.195Z,80.03
2023-09-19T04:03:36.109Z,80.11
2023-09-19T04:06:04.615Z,80.12
2023-09-19T04:08:32.424Z,80.20
2023-09-19T04:11:00.222Z,80.14
2023-09-19T04:13:28.172Z,80.19
2023-09-19T04:15:55.964Z,80.38
2023-09-19T04:18:25.185Z,80.31
2023-09-19T04:20:54.916Z,80.28
2023-09-19T04:23:22.832Z,80.30
2023-09-19T04:25:51.679Z,80.33
2023-09-19T04:28:20.244Z,80.26
2023-09-19T04:30:48.104Z,80.27
2023-09-19T04:33:15.986Z,80.17
2023-09-19T04:35:43.817Z,80.12
2023-09-19T04:38:12.614Z,80.20
2023-09-19T04:40:40.970Z,80.25
2023-09-19T04:43:08.937Z,80.29
2023-09-19T04:45:40.513Z,80.37
2023-09-19T04:48:09.714Z,80.37
2023-09-19T04:50:38.184Z,80.37
2023-09-19T04:53:06.198Z,80.32
2023-09-19T04:55:34.266Z,80.34
2023-09-19T04:58:02.158Z,80.33
2023-09-19T05:00:32.159Z,80.31
2023-09-19T05:03:00.242Z,80.27
2023-09-19T05:05:29.788Z,80.30
2023-09-19T05:07:57.953Z,80.32
2023-09-19T05:10:26.173Z,80.33
2023-09-19T05:12:55.012Z,80.30
2023-09-19T05:15:22.830Z,80.40
2023-09-19T05:17:55.641Z,80.46
2023-09-19T05:20:30.530Z,80.46
2023-09-19T05:23:03.957Z,80.59
2023-09-19T05:25:40.678Z,80.61
2023-09-19T05:28:13.220Z,80.61
2023-09-19T05:30:41.436Z,80.61
2023-09-19T05:33:09.482Z,80.71
2023-09-19T05:35:42.832Z,80.72
2023-09-19T05:38:11.084Z,80.71
2023-09-19T05:40:40.242Z,80.71
2023-09-19T05:43:09.520Z,80.69
2023-09-19T05:45:38.883Z,80.71
2023-09-19T05:48:14.648Z,80.67
2023-09-19T05:50:43.834Z,80.65
2023-09-19T05:53:13.909Z,80.72
2023-09-19T05:55:43.324Z,80.63
2023-09-19T05:58:11.676Z,80.62
2023-09-19T06:00:40.462Z,80.60
2023-09-19T06:03:09.106Z,80.59
2023-09-19T06:05:37.310Z,80.57
2023-09-19T06:08:09.065Z,80.56
2023-09-19T06:10:37.182Z,80.53
2023-09-19T06:13:06.844Z,80.47
2023-09-19T06:15:37.061Z,80.44
2023-09-19T06:18:06.002Z,80.38
2023-09-19T06:20:34.973Z,80.30
2023-09-19T06:23:04.154Z,80.26
2023-09-19T06:25:31.964Z,80.22
2023-09-19T06:27:59.749Z,80.18
2023-09-19T06:30:30.493Z,80.13
2023-09-19T06:33:00.392Z,80.10
2023-09-19T06:35:33.898Z,80.12
2023-09-19T06:38:06.844Z,80.08
2023-09-19T06:40:37.764Z,80.08
2023-09-19T06:43:06.565Z,79.94
2023-09-19T06:45:34.351Z,79.88
2023-09-19T06:48:04.197Z,79.78
2023-09-19T06:50:34.026Z,79.73
2023-09-19T06:53:03.486Z,79.61
2023-09-19T06:55:33.771Z,79.52
2023-09-19T06:58:01.965Z,79.43
2023-09-19T07:00:32.555Z,79.29
2023-09-19T07:03:12.570Z,79.14
2023-09-19T07:05:42.202Z,79.08
2023-09-19T07:08:13.739Z,78.98
2023-09-19T07:10:49.645Z,78.98
2023-09-19T07:13:18.424Z,78.81
2023-09-19T07:15:51.125Z,78.94
2023-09-19T07:18:19.408Z,78.76
2023-09-19T07:20:51.394Z,78.78
2023-09-19T07:23:22.034Z,78.69
2023-09-19T07:25:50.689Z,78.65
2023-09-19T07:28:19.452Z,78.63
2023-09-19T07:30:47.400Z,78.61
2023-09-19T07:33:15.923Z,78.53
2023-09-19T07:35:48.117Z,78.61
2023-09-19T07:38:16.095Z,78.44
2023-09-19T07:40:44.984Z,78.43
2023-09-19T07:43:12.993Z,78.29
2023-09-19T07:45:40.938Z,78.36
2023-09-19T07:48:15.263Z,78.33
2023-09-19T07:50:44.698Z,78.24
2023-09-19T07:53:14.672Z,78.17
2023-09-19T07:55:43.270Z,77.98
2023-09-19T07:58:11.026Z,77.92
2023-09-19T08:00:39.856Z,77.90
2023-09-19T08:03:16.120Z,77.81
2023-09-19T08:05:46.547Z,77.92
2023-09-19T08:08:15.836Z,77.89
2023-09-19T08:10:44.648Z,77.65
2023-09-19T08:13:14.555Z,77.27
2023-09-19T08:15:46.433Z,77.41
2023-09-19T08:18:16.507Z,77.41
2023-09-19T08:20:49.815Z,77.38
2023-09-19T08:23:21.390Z,77.03
2023-09-19T08:25:49.503Z,76.53
2023-09-19T08:28:23.343Z,76.43
2023-09-19T08:30:52.443Z,76.23
2023-09-19T08:33:20.809Z,75.98
2023-09-19T08:35:49.031Z,76.05
2023-09-19T08:38:16.945Z,76.26
2023-09-19T08:40:44.867Z,76.10
2023-09-19T08:43:13.833Z,76.24
2023-09-19T08:45:41.672Z,76.34
2023-09-19T08:48:26.907Z,76.60
2023-09-19T08:51:07.324Z,76.62
2023-09-19T08:53:52.676Z,76.78
2023-09-19T08:56:23.479Z,76.76
2023-09-19T08:59:12.398Z,76.75
2023-09-19T09:01:42.909Z,76.32
2023-09-19T09:04:14.286Z,76.05
2023-09-19T09:06:45.954Z,75.66
2023-09-19T09:09:14.349Z,75.63
2023-09-19T09:11:42.902Z,75.06
2023-09-19T09:14:12.312Z,75.07
2023-09-19T09:16:40.772Z,74.90
2023-09-19T09:19:08.569Z,74.78
2023-09-19T09:21:39.869Z,74.84
2023-09-19T09:24:31.073Z,74.45
2023-09-19T09:26:59.287Z,74.08
2023-09-19T09:29:57.587Z,73.98
2023-09-19T09:32:34.584Z,73.83
2023-09-19T09:35:10.642Z,74.07
2023-09-19T09:37:39.816Z,74.03
2023-09-19T09:40:17.118Z,74.07
2023-09-19T09:42:48.022Z,74.46
2023-09-19T09:45:20.578Z,74.40
2023-09-19T09:47:58.959Z,74.23
2023-09-19T09:50:41.787Z,74.18
2023-09-19T09:53:26.173Z,73.73
2023-09-19T09:56:08.924Z,73.45
2023-09-19T09:58:41.736Z,73.00
2023-09-19T10:01:09.976Z,72.84
2023-09-19T10:03:49.655Z,72.65
2023-09-19T10:06:21.283Z,72.66
2023-09-19T10:09:30.712Z,72.77
2023-09-19T10:12:09.721Z,72.52
2023-09-19T10:14:42.571Z,72.75
2023-09-19T10:17:12.624Z,72.66
2023-09-19T10:19:52.682Z,72.21
2023-09-19T10:22:23.206Z,71.76
2023-09-19T10:25:02.776Z,71.73
2023-09-19T10:27:38.539Z,72.02
2023-09-19T10:30:09.612Z,71.90
2023-09-19T10:32:42.170Z,71.94
2023-09-19T10:35:14.101Z,71.87
2023-09-19T10:37:45.837Z,72.17
2023-09-19T10:40:17.194Z,72.49
2023-09-19T10:42:49.321Z,72.28
2023-09-19T10:45:21.210Z,72.41
2023-09-19T10:47:49.143Z,72.40
2023-09-19T10:50:23.464Z,72.64
2023-09-19T10:52:59.434Z,72.59
2023-09-19T10:55:30.335Z,72.76
2023-09-19T10:58:15.445Z,72.89
2023-09-19T11:01:19.195Z,73.37
2023-09-19T11:03:50.191Z,74.38
2023-09-19T11:06:20.431Z,74.42
2023-09-19T11:09:18.143Z,74.44
2023-09-19T11:11:51.557Z,74.66
2023-09-19T11:14:24.934Z,74.55
2023-09-19T11:17:17.119Z,74.38
2023-09-19T11:20:13.006Z,74.50
2023-09-19T11:22:54.696Z,74.61
2023-09-19T11:25:32.506Z,74.64
2023-09-19T11:28:10.146Z,74.54
2023-09-19T11:30:46.327Z,74.34
2023-09-19T11:33:34.800Z,74.51
2023-09-19T11:36:11.029Z,74.35
2023-09-19T11:38:53.851Z,74.39
2023-09-19T11:41:26.711Z,74.54
2023-09-19T11:44:01.911Z,74.67
2023-09-19T11:46:32.333Z,74.70
2023-09-19T11:49:14.417Z,74.64
2023-09-19T11:51:45.545Z,74.84
2023-09-19T11:54:22.878Z,75.00
2023-09-19T11:56:55.370Z,74.93
2023-09-19T11:59:30.073Z,75.12
2023-09-19T12:02:04.816Z,75.13
2023-09-19T12:04:42.511Z,75.39
2023-09-19T12:07:17.160Z,75.53
2023-09-19T12:10:04.087Z,76.03
2023-09-19T12:12:33.822Z,76.55
2023-09-19T12:15:04.994Z,76.71
2023-09-19T12:17:42.293Z,76.76
2023-09-19T12:20:17.924Z,76.79
2023-09-19T12:22:48.332Z,76.75
2023-09-19T12:25:18.645Z,76.85
2023-09-19T12:27:49.200Z,77.04
2023-09-19T12:32:51.067Z,77.53
2023-09-19T12:35:31.546Z,77.90
2023-09-19T12:37:59.694Z,78.11
2023-09-19T12:40:33.994Z,78.22
2023-09-19T12:43:05.567Z,78.27
2023-09-19T12:45:36.416Z,78.53
2023-09-19T12:48:31.105Z,78.71
2023-09-19T12:51:13.882Z,78.54
2023-09-19T12:53:49.886Z,78.76
2023-09-19T12:56:19.494Z,79.13
2023-09-19T12:58:58.053Z,79.01
2023-09-19T13:01:29.526Z,79.15
2023-09-19T13:04:20.594Z,79.19
2023-09-19T13:06:51.556Z,79.02
2023-09-19T13:09:23.224Z,79.21
2023-09-19T13:11:52.130Z,79.32
2023-09-19T13:14:29.253Z,79.42
2023-09-19T13:17:20.135Z,79.89
2023-09-19T13:19:54.208Z,80.39
2023-09-19T13:22:49.622Z,80.71
2023-09-19T13:25:20.340Z,80.67
2023-09-19T13:27:55.157Z,80.82
2023-09-19T13:30:30.482Z,80.88
2023-09-19T13:33:11.567Z,80.87
2023-09-19T13:35:42.205Z,80.96
2023-09-19T13:38:12.890Z,81.04
2023-09-19T13:40:43.334Z,81.18
2023-09-19T13:43:12.961Z,81.20
2023-09-19T13:45:43.617Z,81.34
2023-09-19T13:48:14.375Z,81.46
2023-09-19T13:50:43.305Z,81.53
2023-09-19T13:53:11.550Z,81.75
2023-09-19T13:55:39.474Z,81.84
2023-09-19T13:58:08.147Z,82.04
2023-09-19T14:00:35.938Z,81.96
2023-09-19T14:03:05.689Z,81.75
2023-09-19T14:05:33.931Z,81.73
2023-09-19T14:08:04.682Z,81.76
2023-09-19T14:10:32.638Z,81.66
2023-09-19T14:13:00.787Z,81.71
2023-09-19T14:15:31.938Z,81.83
2023-09-19T14:18:01.789Z,81.76
2023-09-19T14:20:31.376Z,81.99
2023-09-19T14:23:02.988Z,81.95
2023-09-19T14:25:31.529Z,81.88
2023-09-19T14:27:59.461Z,81.60
2023-09-19T14:30:27.972Z,81.55
2023-09-19T14:32:55.822Z,81.32
2023-09-19T14:35:26.472Z,81.21
2023-09-19T14:37:54.478Z,80.94
2023-09-19T14:40:23.698Z,80.52
2023-09-19T14:42:53.236Z,80.36
2023-09-19T14:45:21.128Z,80.04
2023-09-19T14:47:56.372Z,79.79
2023-09-19T14:50:24.971Z,79.63
2023-09-19T14:52:54.519Z,79.14
2023-09-19T14:55:24.131Z,79.02
2023-09-19T14:57:56.733Z,78.92
2023-09-19T15:00:24.734Z,78.57
2023-09-19T15:02:54.085Z,78.51
2023-09-19T15:05:22.353Z,78.36
2023-09-19T15:07:51.176Z,78.39
2023-09-19T15:10:19.609Z,78.39
2023-09-19T15:12:47.438Z,78.17
2023-09-19T15:15:15.662Z,78.00
2023-09-19T15:17:43.629Z,77.76
2023-09-19T15:20:15.106Z,77.78
2023-09-19T15:22:43.784Z,77.90
2023-09-19T15:25:11.711Z,77.66
2023-09-19T15:27:39.502Z,77.05
2023-09-19T15:30:08.348Z,76.61
2023-09-19T15:32:36.297Z,76.66
2023-09-19T15:35:04.583Z,76.53
2023-09-19T15:37:32.329Z,76.48
2023-09-19T15:40:00.081Z,76.23
2023-09-19T15:42:27.951Z,75.91
2023-09-19T15:44:56.204Z,76.36
2023-09-19T15:47:24.019Z,76.26
2023-09-19T15:49:52.111Z,76.25
2023-09-19T15:52:20.393Z,76.19
2023-09-19T15:54:48.154Z,75.87
2023-09-19T15:57:15.970Z,75.85
2023-09-19T15:59:45.890Z,76.08
2023-09-19T16:02:13.718Z,76.11
2023-09-19T16:04:42.003Z,75.98
2023-09-19T16:07:09.816Z,76.04
2023-09-19T16:09:37.789Z,76.19
2023-09-19T16:12:06.572Z,76.24
2023-09-19T16:14:35.099Z,76.43
2023-09-19T16:17:05.154Z,76.53
2023-09-19T16:19:33.437Z,76.89
2023-09-19T16:22:01.232Z,77.03
2023-09-19T16:24:29.906Z,77.31
2023-09-19T16:26:57.720Z,77.33
2023-09-19T16:29:25.774Z,77.48
2023-09-19T16:31:53.978Z,77.53
2023-09-19T16:34:21.873Z,77.43
2023-09-19T16:36:49.989Z,77.35
2023-09-19T16:39:18.367Z,77.34
2023-09-19T16:41:46.184Z,77.42
2023-09-19T16:44:15.288Z,77.32
2023-09-19T16:46:45.274Z,77.13
2023-09-19T16:49:13.251Z,76.77
2023-09-19T16:51:42.698Z,76.72
2023-09-19T16:54:10.468Z,76.88
2023-09-19T16:56:40.066Z,76.80
2023-09-19T16:59:07.966Z,77.04
2023-09-19T17:01:36.549Z,77.03
2023-09-19T17:04:05.157Z,77.25
2023-09-19T17:06:33.199Z,77.21
2023-09-19T17:09:01.127Z,77.34
2023-09-19T17:11:29.111Z,77.49
2023-09-19T17:13:58.389Z,77.55
2023-09-19T17:16:30.445Z,77.43
2023-09-19T17:18:58.961Z,77.60
2023-09-19T17:21:27.978Z,77.65
2023-09-19T17:23:59.384Z,77.66
2023-09-19T17:26:27.594Z,77.77
2023-09-19T17:28:55.738Z,77.92
2023-09-19T17:31:26.556Z,78.03
2023-09-19T17:33:55.360Z,78.13
2023-09-19T17:36:33.362Z,78.33
2023-09-19T17:39:01.363Z,78.47
2023-09-19T17:41:29.271Z,78.61
2023-09-19T17:44:00.453Z,78.74
2023-09-19T17:46:30.208Z,78.86
2023-09-19T17:49:01.060Z,79.13
2023-09-19T17:51:29.775Z,79.21
2023-09-19T17:54:01.348Z,79.46
2023-09-19T17:56:29.989Z,79.54
2023-09-19T17:58:59.886Z,79.56
2023-09-19T18:01:29.570Z,79.68
2023-09-19T18:03:59.509Z,79.84
2023-09-19T18:06:29.858Z,79.84
2023-09-19T18:08:58.444Z,80.02
2023-09-19T18:11:27.755Z,79.93
2023-09-19T18:13:58.514Z,79.84
2023-09-19T18:16:34.374Z,79.82
2023-09-19T18:19:04.133Z,79.88
2023-09-19T18:21:34.923Z,79.89
2023-09-19T18:24:05.069Z,79.86
2023-09-19T18:26:34.652Z,79.82
2023-09-19T18:29:06.569Z,79.80
2023-09-19T18:31:38.105Z,79.88
2023-09-19T18:34:08.051Z,79.85
2023-09-19T18:36:38.998Z,79.89
2023-09-19T18:39:08.975Z,79.92
2023-09-19T18:41:39.258Z,79.85
2023-09-19T18:44:07.262Z,79.82
2023-09-19T18:46:35.711Z,79.81
2023-09-19T18:49:03.706Z,79.80
2023-09-19T18:51:31.941Z,79.84
2023-09-19T18:54:11.504Z,79.83
2023-09-19T18:56:45.151Z,79.83
2023-09-19T18:59:14.837Z,79.85
2023-09-19T19:01:44.817Z,79.79
2023-09-19T19:04:13.773Z,79.80
2023-09-19T19:06:41.594Z,79.81
2023-09-19T19:09:10.632Z,79.87
2023-09-19T19:11:39.221Z,79.77
2023-09-19T19:14:07.141Z,79.77
2023-09-19T19:16:37.798Z,79.80
2023-09-19T19:19:06.610Z,79.78
2023-09-19T19:21:34.996Z,79.76
2023-09-19T19:24:03.618Z,79.66
2023-09-19T19:26:32.135Z,79.63
2023-09-19T19:28:59.976Z,79.45
2023-09-19T19:31:28.962Z,79.31
2023-09-19T19:33:58.666Z,79.27
2023-09-19T19:36:27.564Z,79.26
2023-09-19T19:38:56.472Z,79.24
2023-09-19T19:41:24.345Z,79.23
2023-09-19T19:43:52.465Z,79.14
2023-09-19T19:46:20.269Z,79.12
2023-09-19T19:48:53.062Z,79.11
2023-09-19T19:51:21.129Z,79.12
2023-09-19T19:53:48.972Z,79.15
2023-09-19T19:56:16.922Z,79.17
2023-09-19T19:58:46.525Z,79.25
2023-09-19T20:01:16.949Z,79.29
2023-09-19T20:03:45.049Z,79.21
2023-09-19T20:06:13.908Z,79.33
2023-09-19T20:08:42.062Z,79.44
2023-09-19T20:11:10.921Z,79.51
2023-09-19T20:13:43.807Z,79.62
2023-09-19T20:16:13.767Z,79.75
2023-09-19T20:18:42.233Z,79.83
2023-09-19T20:21:14.416Z,79.94
2023-09-19T20:23:47.416Z,80.03
2023-09-19T20:26:15.517Z,80.11
2023-09-19T20:28:43.956Z,80.19
2023-09-19T20:31:15.839Z,80.22
2023-09-19T20:33:44.421Z,80.53
2023-09-19T20:36:15.155Z,80.69
2023-09-19T20:38:44.161Z,80.73
2023-09-19T20:41:12.390Z,80.73
2023-09-19T20:43:42.455Z,80.69
2023-09-19T20:46:12.713Z,80.74
2023-09-19T20:48:42.949Z,80.61
2023-09-19T20:51:16.223Z,80.47
2023-09-19T20:53:46.943Z,80.56
2023-09-19T20:56:19.786Z,80.49
2023-09-19T20:58:49.625Z,80.53
2023-09-19T21:01:18.839Z,80.70
2023-09-19T21:03:46.806Z,80.75
2023-09-19T21:06:16.039Z,80.97
2023-09-19T21:08:44.445Z,81.17
2023-09-19T21:11:14.771Z,81.53
2023-09-19T21:13:45.629Z,81.83
2023-09-19T21:16:15.928Z,81.94
2023-09-19T21:18:46.481Z,81.95
2023-09-19T21:21:15.094Z,81.92
2023-09-19T21:23:45.214Z,81.82
2023-09-19T21:26:15.447Z,81.77
2023-09-19T21:28:45.165Z,81.75
2023-09-19T21:31:14.449Z,81.66
2023-09-19T21:33:46.402Z,81.46
2023-09-19T21:36:21.864Z,81.29
2023-09-19T21:38:51.100Z,81.06
2023-09-19T21:41:20.531Z,81.09
2023-09-19T21:43:51.472Z,81.00
2023-09-19T21:46:21.479Z,80.87
2023-09-19T21:48:54.952Z,80.73
2023-09-19T21:51:23.649Z,80.60
2023-09-19T21:53:51.545Z,80.47
2023-09-19T21:56:19.719Z,80.44
2023-09-19T21:58:47.866Z,80.34
2023-09-19T22:01:22.967Z,80.23
2023-09-19T22:03:51.041Z,80.20
2023-09-19T22:06:19.226Z,80.17
2023-09-19T22:08:51.849Z,80.08
2023-09-19T22:11:23.811Z,80.01
2023-09-19T22:13:52.382Z,79.93
2023-09-19T22:16:21.519Z,79.88
2023-09-19T22:18:51.660Z,79.92
2023-09-19T22:21:28.250Z,79.93
2023-09-19T22:23:56.297Z,79.92
2023-09-19T22:26:24.674Z,79.83
2023-09-19T22:28:56.512Z,79.90
2023-09-19T22:31:29.138Z,79.87
2023-09-19T22:33:57.234Z,79.83
2023-09-19T22:36:39.694Z,79.72
2023-09-19T22:39:13.753Z,79.70
2023-09-19T22:41:41.765Z,79.71
2023-09-19T22:44:11.351Z,79.62
2023-09-19T22:46:39.280Z,79.66
2023-09-19T22:49:17.268Z,79.66
2023-09-19T22:51:50.281Z,79.71
2023-09-19T22:54:27.187Z,79.72
2023-09-19T22:56:57.049Z,79.70
2023-09-19T22:59:26.186Z,79.83
2023-09-19T23:01:54.409Z,79.81
2023-09-19T23:04:23.006Z,79.89
2023-09-19T23:06:53.575Z,79.85
2023-09-19T23:09:28.365Z,79.89
2023-09-19T23:12:04.091Z,79.82
2023-09-19T23:14:39.265Z,79.99
2023-09-19T23:17:14.288Z,80.01
2023-09-19T23:19:45.257Z,79.91
2023-09-19T23:22:24.469Z,79.81
2023-09-19T23:25:14.222Z,79.75
2023-09-19T23:27:46.235Z,79.83
2023-09-19T23:30:16.465Z,79.80
2023-09-19T23:32:44.480Z,79.89
2023-09-19T23:35:14.592Z,79.82
2023-09-19T23:37:42.556Z,79.85
2023-09-19T23:40:11.843Z,79.78
2023-09-19T23:42:41.229Z,79.76
2023-09-19T23:45:10.250Z,79.72
2023-09-19T23:47:40.074Z,79.77
2023-09-19T23:50:11.921Z,79.83
2023-09-19T23:52:39.791Z,79.83
2023-09-19T23:55:10.913Z,79.90
2023-09-19T23:57:40.605Z,79.92
